Time;durP1;ratioP1;P1;durP2;ratioP2;P2;SDS_P1;SDS_P2;PMS_P1;PMS_P2;Temp;Humidity;BMP_temperature;BMP_pressure;BME280_temperature;BME280_humidity;BME280_pressure;Samples;Min_cycle;Max_cycle;Signal;HPM_P1;HPM_P2
2023/12/04 00:00:44;;;;;;;19.70;12.13;;;;;;;;;;8275078;28;20044;-55
2023/12/04 00:04:44;;;;;;;17.95;11.30;;;;;;;;;;8277631;28;20620;-56
2023/12/04 00:08:44;;;;;;;20.20;11.02;;;;;;;;;;8280715;28;20028;-56
2023/12/04 00:12:44;;;;;;;16.02;9.50;;;;;;;;;;8280014;28;20056;-57
2023/12/04 00:16:47;;;;;;;16.05;10.38;;;;;;;;;;8278758;28;20100;-57
2023/12/04 00:20:48;;;;;;;17.45;11.52;;;;;;;;;;8287481;28;20025;-57
2023/12/04 00:24:48;;;;;;;19.95;12.38;;;;;;;;;;8284015;28;20052;-56
2023/12/04 00:28:48;;;;;;;27.25;13.48;;;;;;;;;;8286479;28;20028;-57
2023/12/04 00:32:48;;;;;;;22.30;13.30;;;;;;;;;;8285905;28;20334;-57
2023/12/04 00:36:48;;;;;;;22.98;14.48;;;;;;;;;;8288681;28;20071;-55
2023/12/04 00:40:49;;;;;;;24.35;14.23;;;;;;;;;;8291754;28;20550;-57
2023/12/04 00:44:49;;;;;;;23.67;13.87;;;;;;;;;;8284616;28;20112;-57
2023/12/04 00:48:49;;;;;;;24.23;15.48;;;;;;;;;;8287273;28;20279;-56
2023/12/04 00:52:51;;;;;;;24.15;14.90;;;;;;;;;;8288264;28;20370;-57
2023/12/04 00:56:51;;;;;;;23.13;13.63;;;;;;;;;;8284714;28;20106;-57
2023/12/04 01:00:52;;;;;;;28.05;15.90;;;;;;;;;;8287656;28;20037;-57
2023/12/04 01:04:52;;;;;;;22.17;14.43;;;;;;;;;;8286746;28;20029;-56
2023/12/04 01:08:53;;;;;;;25.42;14.60;;;;;;;;;;8285080;28;20504;-56
2023/12/04 01:12:53;;;;;;;23.30;14.77;;;;;;;;;;8274781;28;20553;-55
2023/12/04 01:16:53;;;;;;;22.77;13.52;;;;;;;;;;8282698;28;20088;-56
2023/12/04 01:20:54;;;;;;;22.90;13.48;;;;;;;;;;8281467;28;20149;-57
2023/12/04 01:24:54;;;;;;;19.40;12.18;;;;;;;;;;8278830;28;20032;-56
2023/12/04 01:28:54;;;;;;;17.80;12.25;;;;;;;;;;8285794;28;20028;-58
2023/12/04 01:32:54;;;;;;;19.67;12.93;;;;;;;;;;8281069;28;20095;-58
2023/12/04 01:36:54;;;;;;;21.33;13.43;;;;;;;;;;8284059;28;20052;-58
2023/12/04 01:40:55;;;;;;;22.67;13.57;;;;;;;;;;8279090;28;20025;-56
2023/12/04 01:44:55;;;;;;;18.67;11.93;;;;;;;;;;8279241;28;21200;-57
2023/12/04 01:48:55;;;;;;;22.38;12.43;;;;;;;;;;8281035;28;20076;-57
2023/12/04 01:52:55;;;;;;;18.85;11.63;;;;;;;;;;8276528;28;20082;-56
2023/12/04 01:56:56;;;;;;;20.83;12.87;;;;;;;;;;8278174;28;20263;-57
2023/12/04 02:00:56;;;;;;;21.83;13.30;;;;;;;;;;8275551;28;20284;-57
2023/12/04 02:04:57;;;;;;;21.30;11.48;;;;;;;;;;8278939;28;20036;-58
2023/12/04 02:08:57;;;;;;;22.35;13.00;;;;;;;;;;8274520;28;20279;-57
2023/12/04 02:12:58;;;;;;;20.88;13.30;;;;;;;;;;8275045;28;20025;-58
2023/12/04 02:17:00;;;;;;;18.95;12.23;;;;;;;;;;8280124;28;20121;-56
2023/12/04 02:21:01;;;;;;;20.67;12.80;;;;;;;;;;8280473;28;20071;-55
2023/12/04 02:25:01;;;;;;;19.13;12.38;;;;;;;;;;8278267;28;20059;-56
2023/12/04 02:29:04;;;;;;;20.15;13.23;;;;;;;;;;8276007;28;20044;-55
2023/12/04 02:33:05;;;;;;;16.25;11.10;;;;;;;;;;8279096;28;20087;-55
2023/12/04 02:37:06;;;;;;;18.48;11.68;;;;;;;;;;8279335;28;20033;-58
2023/12/04 02:41:07;;;;;;;20.83;12.00;;;;;;;;;;8281151;28;20083;-56
2023/12/04 02:45:07;;;;;;;16.65;10.90;;;;;;;;;;8274703;28;20052;-56
2023/12/04 02:49:07;;;;;;;19.83;11.73;;;;;;;;;;8282361;28;21036;-56
2023/12/04 02:53:08;;;;;;;18.20;11.73;;;;;;;;;;8277620;28;20332;-56
2023/12/04 02:57:08;;;;;;;21.15;11.95;;;;;;;;;;8279732;28;20795;-56
2023/12/04 03:01:09;;;;;;;17.40;11.20;;;;;;;;;;8279723;28;20041;-56
2023/12/04 03:05:09;;;;;;;24.75;12.30;;;;;;;;;;8278776;28;20286;-56
2023/12/04 03:09:09;;;;;;;17.50;10.67;;;;;;;;;;8278166;28;20727;-56
2023/12/04 03:13:09;;;;;;;19.80;11.97;;;;;;;;;;8278601;28;20342;-56
2023/12/04 03:17:10;;;;;;;19.55;11.68;;;;;;;;;;8282273;28;20278;-56
2023/12/04 03:21:10;;;;;;;19.10;11.52;;;;;;;;;;8285418;28;20072;-55
2023/12/04 03:25:10;;;;;;;18.35;11.05;;;;;;;;;;8282311;28;20361;-59
2023/12/04 03:29:10;;;;;;;17.85;11.65;;;;;;;;;;8286369;28;20029;-57
2023/12/04 03:33:11;;;;;;;18.52;11.30;;;;;;;;;;8286892;28;20110;-56
2023/12/04 03:37:11;;;;;;;16.35;10.60;;;;;;;;;;8285722;28;20531;-58
2023/12/04 03:41:15;;;;;;;18.25;11.05;;;;;;;;;;8280735;28;20044;-56
2023/12/04 03:45:15;;;;;;;16.63;9.80;;;;;;;;;;8281213;28;20051;-55
2023/12/04 03:49:15;;;;;;;15.70;9.90;;;;;;;;;;8279035;28;20016;-55
2023/12/04 03:53:16;;;;;;;15.95;9.48;;;;;;;;;;8278224;28;20029;-54
2023/12/04 03:57:16;;;;;;;16.52;10.23;;;;;;;;;;8282427;28;20055;-56
2023/12/04 04:01:16;;;;;;;16.05;10.38;;;;;;;;;;8278142;28;20037;-57
2023/12/04 04:05:17;;;;;;;17.05;9.50;;;;;;;;;;8281645;28;20449;-56
2023/12/04 04:09:19;;;;;;;14.45;9.77;;;;;;;;;;8279649;28;20294;-56
2023/12/04 04:13:20;;;;;;;16.42;10.10;;;;;;;;;;8282423;28;20025;-56
2023/12/04 04:17:21;;;;;;;14.93;10.35;;;;;;;;;;8281527;28;20775;-55
2023/12/04 04:21:21;;;;;;;19.63;11.45;;;;;;;;;;8278473;28;20029;-57
2023/12/04 04:25:23;;;;;;;18.52;11.30;;;;;;;;;;8286239;28;20279;-56
2023/12/04 04:29:23;;;;;;;18.15;10.32;;;;;;;;;;8283539;28;20387;-59
2023/12/04 04:33:23;;;;;;;13.18;8.70;;;;;;;;;;8282291;28;20041;-56
2023/12/04 04:37:23;;;;;;;12.55;8.35;;;;;;;;;;8284785;28;20021;-57
2023/12/04 04:41:24;;;;;;;16.17;9.75;;;;;;;;;;8285261;28;20036;-57
2023/12/04 04:45:24;;;;;;;16.25;9.48;;;;;;;;;;8283895;28;20381;-57
2023/12/04 04:49:24;;;;;;;15.45;9.18;;;;;;;;;;8282610;28;20807;-57
2023/12/04 04:53:24;;;;;;;18.35;10.43;;;;;;;;;;8280477;28;20812;-57
2023/12/04 04:57:25;;;;;;;14.27;8.88;;;;;;;;;;8283902;28;20018;-57
2023/12/04 05:01:25;;;;;;;12.63;8.80;;;;;;;;;;8279933;28;23089;-57
2023/12/04 05:05:25;;;;;;;11.20;7.18;;;;;;;;;;8283458;28;20843;-56
2023/12/04 05:09:25;;;;;;;13.00;7.95;;;;;;;;;;8280908;28;20680;-58
2023/12/04 05:13:25;;;;;;;13.35;8.52;;;;;;;;;;8282522;28;20029;-57
2023/12/04 05:17:26;;;;;;;12.75;8.15;;;;;;;;;;8275481;28;20267;-56
2023/12/04 05:21:26;;;;;;;15.02;10.50;;;;;;;;;;8278229;28;20033;-57
2023/12/04 05:25:26;;;;;;;15.00;9.43;;;;;;;;;;8279653;28;20126;-57
2023/12/04 05:29:26;;;;;;;12.77;8.90;;;;;;;;;;8283172;28;20157;-56
2023/12/04 05:33:27;;;;;;;16.23;9.65;;;;;;;;;;8284440;28;20044;-57
2023/12/04 05:37:27;;;;;;;14.75;9.43;;;;;;;;;;8281990;28;20397;-57
2023/12/04 05:41:27;;;;;;;14.32;8.40;;;;;;;;;;8256932;28;23139;-58
2023/12/04 05:45:27;;;;;;;13.73;7.70;;;;;;;;;;8280649;28;20081;-57
2023/12/04 05:49:29;;;;;;;13.90;8.50;;;;;;;;;;8280365;28;20369;-57
2023/12/04 05:53:29;;;;;;;13.02;8.10;;;;;;;;;;8278179;28;20033;-57
2023/12/04 05:57:30;;;;;;;12.93;8.65;;;;;;;;;;8277280;28;20127;-57
2023/12/04 06:01:31;;;;;;;13.70;8.82;;;;;;;;;;8280114;28;20040;-55
2023/12/04 06:05:31;;;;;;;12.98;8.50;;;;;;;;;;8282369;28;20143;-57
2023/12/04 06:09:31;;;;;;;14.23;9.00;;;;;;;;;;8285069;28;20036;-57
2023/12/04 06:13:31;;;;;;;14.90;8.75;;;;;;;;;;8270529;28;20033;-57
2023/12/04 06:17:32;;;;;;;15.02;9.63;;;;;;;;;;8283599;28;20920;-56
2023/12/04 06:21:32;;;;;;;12.88;8.63;;;;;;;;;;8285575;28;20021;-56
2023/12/04 06:25:33;;;;;;;13.57;8.50;;;;;;;;;;8285394;28;20772;-59
2023/12/04 06:29:33;;;;;;;15.05;8.25;;;;;;;;;;8285140;28;20048;-56
2023/12/04 06:33:33;;;;;;;14.27;9.20;;;;;;;;;;8288776;28;20037;-56
2023/12/04 06:37:36;;;;;;;15.50;9.30;;;;;;;;;;8286119;28;20025;-57
2023/12/04 06:41:36;;;;;;;14.88;9.80;;;;;;;;;;8284738;28;20033;-56
2023/12/04 06:45:38;;;;;;;14.38;9.52;;;;;;;;;;8287457;28;20587;-57
2023/12/04 06:49:38;;;;;;;19.20;9.95;;;;;;;;;;8292016;28;20363;-56
2023/12/04 06:53:38;;;;;;;14.05;9.38;;;;;;;;;;8287402;28;20030;-56
2023/12/04 06:57:38;;;;;;;15.43;9.25;;;;;;;;;;8295873;28;20067;-57
2023/12/04 07:01:39;;;;;;;17.75;10.38;;;;;;;;;;8296382;28;20498;-56
2023/12/04 07:05:39;;;;;;;13.63;9.07;;;;;;;;;;8290676;28;20039;-56
2023/12/04 07:09:39;;;;;;;14.15;8.88;;;;;;;;;;8291565;28;20025;-56
2023/12/04 07:13:42;;;;;;;14.90;9.18;;;;;;;;;;8292502;28;20604;-57
2023/12/04 07:17:42;;;;;;;15.98;9.73;;;;;;;;;;8294451;28;20106;-56
2023/12/04 07:21:42;;;;;;;14.95;9.82;;;;;;;;;;8293534;28;20052;-55
2023/12/04 07:25:43;;;;;;;19.30;10.80;;;;;;;;;;8291755;28;20128;-55
2023/12/04 07:29:43;;;;;;;15.02;9.18;;;;;;;;;;8291837;28;20899;-57
2023/12/04 07:33:43;;;;;;;16.98;10.57;;;;;;;;;;8295034;28;20379;-57
2023/12/04 07:37:43;;;;;;;17.02;8.90;;;;;;;;;;8294147;28;20048;-56
2023/12/04 07:41:44;;;;;;;15.43;9.65;;;;;;;;;;8296328;28;20819;-55
2023/12/04 07:45:44;;;;;;;17.80;10.45;;;;;;;;;;8277497;28;20041;-57
2023/12/04 07:49:44;;;;;;;14.57;8.80;;;;;;;;;;8291275;28;20029;-56
2023/12/04 07:53:44;;;;;;;14.63;8.82;;;;;;;;;;8292613;28;20496;-57
2023/12/04 07:57:45;;;;;;;16.93;10.37;;;;;;;;;;8291366;28;20132;-56
2023/12/04 08:01:45;;;;;;;22.63;12.23;;;;;;;;;;8286448;28;20280;-56
2023/12/04 08:05:45;;;;;;;17.00;10.32;;;;;;;;;;8297856;28;20482;-57
2023/12/04 08:09:45;;;;;;;14.82;9.95;;;;;;;;;;8286829;28;20021;-57
2023/12/04 08:13:45;;;;;;;19.57;13.00;;;;;;;;;;8288008;28;21018;-56
2023/12/04 08:17:46;;;;;;;20.67;12.13;;;;;;;;;;8286561;28;21124;-57
2023/12/04 08:21:46;;;;;;;17.77;10.52;;;;;;;;;;8285349;28;20021;-57
2023/12/04 08:25:46;;;;;;;13.25;8.93;;;;;;;;;;8287450;28;20141;-56
2023/12/04 08:29:46;;;;;;;16.05;10.05;;;;;;;;;;8288874;28;20040;-55
2023/12/04 08:33:47;;;;;;;23.35;11.65;;;;;;;;;;8289033;28;20056;-54
2023/12/04 08:37:47;;;;;;;17.40;9.65;;;;;;;;;;8286930;28;20012;-54
2023/12/04 08:41:47;;;;;;;16.67;9.10;;;;;;;;;;8286662;28;20032;-55
2023/12/04 08:45:48;;;;;;;15.88;9.05;;;;;;;;;;8288978;28;20432;-55
2023/12/04 08:49:48;;;;;;;12.82;8.45;;;;;;;;;;8287109;28;20021;-55
2023/12/04 08:53:48;;;;;;;17.95;10.23;;;;;;;;;;8283875;28;20098;-56
2023/12/04 08:57:48;;;;;;;13.70;9.18;;;;;;;;;;8284169;28;20017;-55
2023/12/04 09:01:48;;;;;;;17.90;9.75;;;;;;;;;;8283834;28;20064;-55
2023/12/04 09:05:51;;;;;;;13.52;8.80;;;;;;;;;;8284044;28;20017;-56
2023/12/04 09:09:51;;;;;;;12.68;8.20;;;;;;;;;;8289636;28;20170;-56
2023/12/04 09:13:52;;;;;;;14.98;8.80;;;;;;;;;;8283538;28;20051;-54
2023/12/04 09:17:52;;;;;;;11.85;7.93;;;;;;;;;;8285186;28;20468;-55
2023/12/04 09:21:52;;;;;;;12.68;8.70;;;;;;;;;;8268242;28;20336;-56
2023/12/04 09:25:52;;;;;;;13.32;8.98;;;;;;;;;;8285592;28;20037;-56
2023/12/04 09:29:52;;;;;;;10.98;7.72;;;;;;;;;;8284166;28;20063;-56
2023/12/04 09:33:52;;;;;;;12.55;8.25;;;;;;;;;;8283434;28;20112;-56
2023/12/04 09:37:54;;;;;;;11.55;7.95;;;;;;;;;;8289059;28;20084;-57
2023/12/04 09:41:54;;;;;;;11.52;7.80;;;;;;;;;;8297413;28;20032;-56
2023/12/04 09:45:55;;;;;;;13.32;8.15;;;;;;;;;;8292962;28;20033;-55
2023/12/04 09:49:55;;;;;;;11.93;7.65;;;;;;;;;;8290213;28;20080;-55
2023/12/04 09:53:56;;;;;;;11.93;7.65;;;;;;;;;;8280348;28;20047;-57
2023/12/04 09:57:56;;;;;;;12.63;7.97;;;;;;;;;;8294064;28;20025;-56
2023/12/04 10:01:57;;;;;;;12.27;8.10;;;;;;;;;;8292733;28;20633;-56
2023/12/04 10:05:57;;;;;;;17.33;9.57;;;;;;;;;;8292736;28;20399;-55
2023/12/04 10:09:58;;;;;;;14.15;9.23;;;;;;;;;;8291859;28;20399;-56
2023/12/04 10:13:58;;;;;;;19.03;11.17;;;;;;;;;;8295708;28;20265;-56
2023/12/04 10:17:58;;;;;;;16.42;10.43;;;;;;;;;;8291177;28;20836;-55
2023/12/04 10:21:59;;;;;;;15.82;9.82;;;;;;;;;;8278074;28;20033;-56
2023/12/04 10:26:00;;;;;;;18.52;9.57;;;;;;;;;;8299216;28;20112;-57
2023/12/04 10:30:00;;;;;;;14.50;9.73;;;;;;;;;;8290425;28;20136;-56
2023/12/04 10:34:01;;;;;;;16.85;11.85;;;;;;;;;;8275932;28;20420;-56
2023/12/04 10:38:02;;;;;;;16.13;10.50;;;;;;;;;;8290046;28;20064;-57
2023/12/04 10:42:03;;;;;;;17.50;11.27;;;;;;;;;;8291199;28;20021;-57
2023/12/04 10:46:03;;;;;;;16.27;9.95;;;;;;;;;;8280092;28;20040;-56
2023/12/04 10:50:04;;;;;;;14.00;10.27;;;;;;;;;;8294255;28;20775;-55
2023/12/04 10:54:05;;;;;;;15.50;10.32;;;;;;;;;;8297473;28;20068;-56
2023/12/04 10:58:09;;;;;;;15.98;10.68;;;;;;;;;;8298498;28;20032;-57
2023/12/04 11:02:13;;;;;;;14.32;9.23;;;;;;;;;;8293161;28;20045;-56
2023/12/04 11:06:16;;;;;;;13.95;9.30;;;;;;;;;;8292446;28;20032;-57
2023/12/04 11:10:16;;;;;;;14.45;9.38;;;;;;;;;;8290373;28;20140;-55
2023/12/04 11:14:21;;;;;;;18.13;10.68;;;;;;;;;;8288512;28;20202;-56
2023/12/04 11:18:23;;;;;;;16.73;10.15;;;;;;;;;;8290589;28;20628;-57
2023/12/04 11:22:25;;;;;;;15.80;10.68;;;;;;;;;;8291834;28;20029;-56
2023/12/04 11:26:25;;;;;;;17.63;10.57;;;;;;;;;;8283528;28;20325;-55
2023/12/04 11:30:26;;;;;;;16.65;10.55;;;;;;;;;;8288857;28;20274;-56
2023/12/04 11:34:26;;;;;;;14.45;8.98;;;;;;;;;;8283668;28;20025;-56
2023/12/04 11:38:26;;;;;;;15.70;9.75;;;;;;;;;;8286467;28;20021;-55
2023/12/04 11:42:27;;;;;;;16.90;10.20;;;;;;;;;;8285392;28;20056;-55
2023/12/04 11:46:28;;;;;;;15.02;9.25;;;;;;;;;;8289273;28;20276;-56
2023/12/04 11:50:28;;;;;;;16.25;9.98;;;;;;;;;;8279827;28;20284;-56
2023/12/04 11:54:30;;;;;;;16.13;10.52;;;;;;;;;;8288006;28;20173;-57
2023/12/04 11:58:30;;;;;;;16.02;11.00;;;;;;;;;;8287540;28;20025;-54
2023/12/04 12:02:31;;;;;;;14.20;9.15;;;;;;;;;;8287332;28;20037;-56
2023/12/04 12:06:31;;;;;;;16.33;11.35;;;;;;;;;;8288358;28;20107;-56
2023/12/04 12:10:32;;;;;;;18.52;12.02;;;;;;;;;;8286578;28;20062;-55
2023/12/04 12:14:32;;;;;;;18.70;11.57;;;;;;;;;;8288420;28;20144;-57
2023/12/04 12:18:34;;;;;;;20.25;12.27;;;;;;;;;;8285865;28;20139;-56
2023/12/04 12:22:35;;;;;;;18.42;12.55;;;;;;;;;;8288884;28;20032;-56
2023/12/04 12:26:36;;;;;;;15.85;10.70;;;;;;;;;;8267303;28;20460;-55
2023/12/04 12:30:36;;;;;;;15.10;10.18;;;;;;;;;;8283371;28;20164;-56
2023/12/04 12:34:37;;;;;;;18.73;12.80;;;;;;;;;;8283756;28;20699;-56
2023/12/04 12:38:37;;;;;;;19.70;12.18;;;;;;;;;;8275276;28;20585;-55
2023/12/04 12:42:44;;;;;;;17.67;10.25;;;;;;;;;;8263498;28;20028;-55
2023/12/04 12:46:51;;;;;;;17.83;11.25;;;;;;;;;;8284613;28;20048;-57
2023/12/04 12:50:51;;;;;;;15.68;10.27;;;;;;;;;;8280005;28;20111;-60
2023/12/04 12:54:51;;;;;;;15.40;10.57;;;;;;;;;;8282726;28;20139;-56
2023/12/04 12:58:52;;;;;;;14.55;10.35;;;;;;;;;;8288410;28;20052;-57
2023/12/04 13:02:55;;;;;;;17.38;10.95;;;;;;;;;;8285495;28;20045;-56
2023/12/04 13:06:55;;;;;;;14.68;10.18;;;;;;;;;;8279718;28;20821;-58
2023/12/04 13:10:56;;;;;;;12.23;8.82;;;;;;;;;;8282851;28;20041;-56
2023/12/04 13:14:56;;;;;;;12.90;8.45;;;;;;;;;;8279002;28;20029;-57
2023/12/04 13:18:56;;;;;;;13.45;8.48;;;;;;;;;;8282672;28;20094;-57
2023/12/04 13:22:56;;;;;;;17.13;9.93;;;;;;;;;;8284401;28;20067;-56
2023/12/04 13:26:57;;;;;;;17.35;10.32;;;;;;;;;;8282484;28;20037;-55
2023/12/04 13:30:57;;;;;;;11.90;8.43;;;;;;;;;;8279217;28;20120;-57
2023/12/04 13:34:58;;;;;;;12.82;8.48;;;;;;;;;;8285191;28;20035;-57
2023/12/04 13:38:58;;;;;;;15.55;9.57;;;;;;;;;;8280613;28;20025;-56
2023/12/04 13:47:17;;;;;;;17.20;10.77;;;;;;;;;;8276003;28;20114;-55
2023/12/04 13:51:19;;;;;;;16.15;11.30;;;;;;;;;;8279611;28;20029;-56
2023/12/04 13:55:21;;;;;;;17.27;11.20;;;;;;;;;;8277597;28;20527;-56
2023/12/04 13:59:22;;;;;;;19.42;12.25;;;;;;;;;;8277490;28;20043;-57
2023/12/04 14:03:23;;;;;;;15.68;10.90;;;;;;;;;;8276720;28;20573;-57
2023/12/04 14:07:24;;;;;;;21.77;12.50;;;;;;;;;;8275769;28;20040;-56
2023/12/04 14:11:24;;;;;;;24.23;13.20;;;;;;;;;;8275102;28;20025;-56
2023/12/04 14:15:25;;;;;;;19.58;12.15;;;;;;;;;;8258642;28;20032;-57
2023/12/04 14:19:25;;;;;;;23.60;15.00;;;;;;;;;;8275363;28;20169;-55
2023/12/04 14:23:25;;;;;;;24.42;12.95;;;;;;;;;;8275345;28;20033;-56
2023/12/04 14:27:25;;;;;;;21.10;12.50;;;;;;;;;;8275016;28;20033;-58
2023/12/04 14:31:25;;;;;;;17.27;11.40;;;;;;;;;;8273945;28;20284;-56
2023/12/04 14:35:26;;;;;;;17.05;10.88;;;;;;;;;;8273797;28;20033;-55
2023/12/04 14:39:27;;;;;;;18.67;11.37;;;;;;;;;;8275091;28;20024;-56
2023/12/04 14:43:27;;;;;;;17.20;10.88;;;;;;;;;;8265102;28;20270;-55
2023/12/04 14:47:28;;;;;;;17.77;11.25;;;;;;;;;;8278722;28;20041;-55
2023/12/04 14:51:28;;;;;;;19.20;11.23;;;;;;;;;;8275561;28;20426;-55
2023/12/04 14:56:45;;;;;;;20.13;13.05;;;;;;;;;;8281192;28;20211;-56
2023/12/04 15:12:41;;;;;;;25.30;14.25;;;;;;;;;;8273795;28;20033;-57
2023/12/04 15:16:47;;;;;;;28.65;15.88;;;;;;;;;;8279345;28;20100;-58
2023/12/04 15:20:48;;;;;;;20.17;12.90;;;;;;;;;;8278726;28;20136;-58
2023/12/04 15:24:48;;;;;;;23.42;13.50;;;;;;;;;;8279371;28;20147;-58
2023/12/04 15:28:49;;;;;;;20.92;12.70;;;;;;;;;;8278987;28;20056;-57
2023/12/04 15:32:49;;;;;;;16.23;11.32;;;;;;;;;;8278494;28;20549;-60
2023/12/04 15:36:50;;;;;;;19.40;13.30;;;;;;;;;;8279636;28;20459;-58
2023/12/04 15:40:51;;;;;;;23.95;13.73;;;;;;;;;;8275773;28;20013;-58
2023/12/04 15:44:52;;;;;;;22.02;13.45;;;;;;;;;;8273374;28;20031;-58
2023/12/04 15:48:53;;;;;;;21.50;12.90;;;;;;;;;;8281854;28;20041;-58
2023/12/04 15:52:53;;;;;;;32.13;16.10;;;;;;;;;;8276359;28;20665;-57
2023/12/04 15:56:53;;;;;;;19.60;11.80;;;;;;;;;;8277103;28;20163;-59
2023/12/04 16:00:53;;;;;;;20.30;13.07;;;;;;;;;;8259845;28;20071;-58
2023/12/04 16:04:54;;;;;;;20.98;13.23;;;;;;;;;;8279102;28;20274;-58
2023/12/04 16:08:57;;;;;;;21.48;13.75;;;;;;;;;;8277794;28;20028;-57
2023/12/04 16:12:57;;;;;;;23.50;14.82;;;;;;;;;;8263560;28;20051;-57
2023/12/04 16:16:57;;;;;;;22.95;14.57;;;;;;;;;;8265237;28;20033;-58
2023/12/04 16:20:57;;;;;;;21.98;13.80;;;;;;;;;;8271157;28;20028;-58
2023/12/04 16:24:58;;;;;;;22.55;12.93;;;;;;;;;;8272398;28;20291;-58
2023/12/04 16:28:58;;;;;;;29.92;16.77;;;;;;;;;;8264655;28;20074;-58
2023/12/04 16:32:59;;;;;;;31.95;16.38;;;;;;;;;;8269223;28;20045;-57
2023/12/04 16:36:59;;;;;;;29.80;15.18;;;;;;;;;;8271683;28;20032;-58
2023/12/04 16:40:59;;;;;;;28.42;15.60;;;;;;;;;;8271315;28;20021;-58
2023/12/04 16:45:00;;;;;;;50.08;15.55;;;;;;;;;;8272186;28;20033;-59
2023/12/04 16:49:00;;;;;;;33.30;15.07;;;;;;;;;;8268655;28;20044;-58
2023/12/04 16:53:00;;;;;;;25.92;13.85;;;;;;;;;;8275837;28;20021;-59
2023/12/04 16:57:00;;;;;;;92.28;17.85;;;;;;;;;;8269760;28;20094;-59
2023/12/04 17:01:01;;;;;;;35.03;15.80;;;;;;;;;;8273019;28;20042;-59
2023/12/04 17:05:02;;;;;;;25.30;15.00;;;;;;;;;;8273014;28;20032;-59
2023/12/04 17:09:03;;;;;;;20.13;13.52;;;;;;;;;;8257468;28;20037;-59
2023/12/04 17:13:04;;;;;;;26.80;15.93;;;;;;;;;;8269524;28;20122;-58
2023/12/04 17:17:04;;;;;;;27.27;17.13;;;;;;;;;;8269501;28;20041;-59
2023/12/04 17:21:04;;;;;;;27.73;16.40;;;;;;;;;;8271860;28;20029;-59
2023/12/04 17:25:06;;;;;;;25.02;14.85;;;;;;;;;;8264577;28;20032;-59
2023/12/04 17:29:07;;;;;;;22.27;14.93;;;;;;;;;;8274435;28;23170;-58
2023/12/04 17:33:07;;;;;;;20.73;13.27;;;;;;;;;;8263607;28;20029;-57
2023/12/04 17:37:08;;;;;;;22.67;14.23;;;;;;;;;;8270022;28;20057;-57
2023/12/04 17:41:11;;;;;;;24.02;14.75;;;;;;;;;;8271972;28;20266;-57
2023/12/04 17:45:12;;;;;;;22.93;14.70;;;;;;;;;;8271957;28;20028;-57
2023/12/04 17:49:13;;;;;;;22.40;13.88;;;;;;;;;;8274878;28;20017;-58
2023/12/04 17:53:13;;;;;;;24.45;14.98;;;;;;;;;;8253729;28;20039;-57
2023/12/04 17:57:14;;;;;;;23.65;14.32;;;;;;;;;;8265453;28;20561;-57
2023/12/04 18:01:14;;;;;;;22.50;13.20;;;;;;;;;;8271811;28;20025;-57
2023/12/04 18:05:15;;;;;;;23.52;13.85;;;;;;;;;;8273550;28;20325;-58
2023/12/04 18:09:16;;;;;;;26.88;14.60;;;;;;;;;;8277156;28;20773;-59
2023/12/04 18:13:16;;;;;;;18.63;12.98;;;;;;;;;;8272461;28;20126;-57
2023/12/04 18:17:16;;;;;;;23.70;16.25;;;;;;;;;;8270805;28;20037;-59
2023/12/04 18:21:16;;;;;;;23.08;14.27;;;;;;;;;;8271338;28;20025;-59
2023/12/04 18:25:17;;;;;;;26.23;14.18;;;;;;;;;;8271716;28;20135;-58
2023/12/04 18:29:17;;;;;;;21.45;13.10;;;;;;;;;;8271964;28;20279;-59
2023/12/04 18:33:18;;;;;;;21.73;14.57;;;;;;;;;;8275364;28;20172;-58
2023/12/04 18:37:21;;;;;;;22.15;13.85;;;;;;;;;;8271080;28;20724;-59
2023/12/04 18:41:22;;;;;;;34.23;18.47;;;;;;;;;;8261819;28;20469;-58
2023/12/04 18:45:22;;;;;;;28.88;16.48;;;;;;;;;;8272964;28;20305;-58
2023/12/04 18:49:23;;;;;;;29.77;16.38;;;;;;;;;;8281534;28;20522;-59
2023/12/04 18:53:25;;;;;;;36.30;17.85;;;;;;;;;;8276998;28;20041;-59
2023/12/04 18:57:25;;;;;;;34.55;17.50;;;;;;;;;;8279724;28;20025;-58
2023/12/04 19:01:25;;;;;;;28.52;17.20;;;;;;;;;;8276705;28;20221;-59
2023/12/04 19:05:30;;;;;;;36.25;18.50;;;;;;;;;;8279268;28;20055;-60
2023/12/04 19:09:30;;;;;;;35.00;19.40;;;;;;;;;;8277200;28;20283;-59
2023/12/04 19:13:30;;;;;;;30.38;18.20;;;;;;;;;;8278653;28;20024;-58
2023/12/04 19:17:30;;;;;;;24.85;15.68;;;;;;;;;;8281370;28;20215;-57
2023/12/04 19:21:31;;;;;;;34.40;19.60;;;;;;;;;;8278099;28;20155;-57
2023/12/04 19:25:34;;;;;;;26.58;16.08;;;;;;;;;;8280697;28;20024;-58
2023/12/04 19:29:35;;;;;;;34.95;20.08;;;;;;;;;;8277402;28;20913;-65
2023/12/04 19:33:35;;;;;;;30.58;18.23;;;;;;;;;;8281855;28;20034;-59
2023/12/04 19:37:35;;;;;;;36.60;21.33;;;;;;;;;;8280029;28;20060;-59
2023/12/04 19:41:35;;;;;;;39.00;23.27;;;;;;;;;;8278564;28;20025;-59
2023/12/04 19:45:35;;;;;;;43.97;23.55;;;;;;;;;;8276698;28;20043;-59
2023/12/04 19:49:40;;;;;;;40.53;22.85;;;;;;;;;;8275155;28;20017;-59
2023/12/04 19:53:41;;;;;;;31.45;19.52;;;;;;;;;;8279331;28;20028;-59
2023/12/04 19:57:41;;;;;;;26.50;16.38;;;;;;;;;;8277533;28;20021;-59
2023/12/04 20:01:41;;;;;;;30.67;16.65;;;;;;;;;;8276017;28;20044;-59
2023/12/04 20:05:41;;;;;;;28.95;17.42;;;;;;;;;;8276959;28;20803;-58
2023/12/04 20:09:41;;;;;;;23.27;15.05;;;;;;;;;;8280460;28;20033;-58
2023/12/04 20:13:42;;;;;;;25.77;14.73;;;;;;;;;;8275366;28;20029;-59
2023/12/04 20:17:42;;;;;;;21.95;14.95;;;;;;;;;;8278410;28;20585;-58
2023/12/04 20:21:42;;;;;;;26.50;17.03;;;;;;;;;;8274897;28;20009;-59
2023/12/04 20:25:43;;;;;;;23.23;14.40;;;;;;;;;;8277109;28;20271;-59
2023/12/04 20:29:43;;;;;;;25.85;15.70;;;;;;;;;;8280632;28;20036;-59
2023/12/04 20:33:43;;;;;;;24.52;15.27;;;;;;;;;;8276068;28;20083;-62
2023/12/04 20:37:43;;;;;;;25.98;15.45;;;;;;;;;;8282878;28;20958;-61
2023/12/04 20:41:44;;;;;;;23.17;13.75;;;;;;;;;;8283190;28;20024;-60
2023/12/04 20:45:44;;;;;;;28.35;16.70;;;;;;;;;;8281730;28;20033;-61
2023/12/04 20:49:44;;;;;;;25.30;14.43;;;;;;;;;;8277301;28;20083;-60
2023/12/04 20:53:44;;;;;;;29.33;16.10;;;;;;;;;;8278563;28;20262;-60
2023/12/04 20:57:45;;;;;;;23.42;14.80;;;;;;;;;;8278771;28;20029;-62
2023/12/04 21:01:50;;;;;;;23.30;13.93;;;;;;;;;;8278421;28;20638;-63
2023/12/04 21:05:50;;;;;;;;;;;;;;;;;;8281233;28;20559;-63
2023/12/04 21:09:50;;;;;;;32.25;18.25;;;;;;;;;;8278610;28;19924;-62
2023/12/04 21:13:51;;;;;;;30.73;17.75;;;;;;;;;;8278406;28;20017;-63
2023/12/04 21:17:51;;;;;;;41.08;21.33;;;;;;;;;;8279344;28;20045;-63
2023/12/04 21:21:51;;;;;;;28.88;17.00;;;;;;;;;;8278823;28;20021;-63
2023/12/04 21:25:51;;;;;;;31.35;18.50;;;;;;;;;;8283186;28;20029;-63
2023/12/04 21:29:52;;;;;;;27.98;16.83;;;;;;;;;;8280513;28;20025;-63
2023/12/04 21:33:52;;;;;;;37.53;19.08;;;;;;;;;;8280900;28;20063;-62
2023/12/04 21:37:52;;;;;;;37.60;18.33;;;;;;;;;;8276997;28;20059;-62
2023/12/04 21:41:53;;;;;;;27.10;17.08;;;;;;;;;;8280845;28;20399;-62
2023/12/04 21:45:53;;;;;;;29.42;16.98;;;;;;;;;;8278999;28;20041;-62
2023/12/04 21:49:54;;;;;;;30.80;17.85;;;;;;;;;;8281716;28;20028;-62
2023/12/04 21:53:54;;;;;;;33.72;18.58;;;;;;;;;;8260196;28;20134;-61
2023/12/04 21:57:54;;;;;;;31.13;18.10;;;;;;;;;;8280641;28;20025;-62
2023/12/04 22:01:56;;;;;;;27.15;15.85;;;;;;;;;;8280339;28;20037;-62
2023/12/04 22:05:57;;;;;;;30.00;15.95;;;;;;;;;;8279803;28;20096;-62
2023/12/04 22:09:57;;;;;;;39.47;20.83;;;;;;;;;;8262316;28;20037;-61
2023/12/04 22:13:58;;;;;;;25.85;15.45;;;;;;;;;;8279072;28;20087;-60
2023/12/04 22:17:58;;;;;;;43.73;20.13;;;;;;;;;;8271650;28;20073;-59
2023/12/04 22:21:58;;;;;;;32.28;17.63;;;;;;;;;;8269356;28;20267;-59
2023/12/04 22:25:58;;;;;;;29.40;16.87;;;;;;;;;;8273904;28;20525;-59
2023/12/04 22:29:59;;;;;;;24.48;15.70;;;;;;;;;;8238345;28;1035276;-61
2023/12/04 22:33:59;;;;;;;29.50;17.97;;;;;;;;;;8274153;28;20045;-62
2023/12/04 22:38:01;;;;;;;34.38;18.13;;;;;;;;;;8276889;28;20276;-62
2023/12/04 22:42:01;;;;;;;48.58;20.73;;;;;;;;;;8274217;28;20877;-62
2023/12/04 22:46:01;;;;;;;47.88;18.85;;;;;;;;;;8274674;28;20068;-62
2023/12/04 22:50:01;;;;;;;77.47;19.15;;;;;;;;;;8272112;28;20025;-63
2023/12/04 22:54:02;;;;;;;115.25;22.70;;;;;;;;;;8277742;28;20039;-62
2023/12/04 22:58:02;;;;;;;76.57;19.08;;;;;;;;;;8274243;28;20025;-62
2023/12/04 23:02:03;;;;;;;249.45;25.95;;;;;;;;;;8274349;28;20111;-61
2023/12/04 23:06:03;;;;;;;239.45;23.85;;;;;;;;;;8273851;28;20072;-62
2023/12/04 23:10:05;;;;;;;273.02;24.40;;;;;;;;;;8275186;28;21309;-62
2023/12/04 23:14:05;;;;;;;269.23;22.30;;;;;;;;;;8274130;28;20055;-61
2023/12/04 23:18:06;;;;;;;217.48;23.90;;;;;;;;;;8275995;28;22888;-59
2023/12/04 23:22:06;;;;;;;415.25;26.63;;;;;;;;;;8274859;28;22080;-59
2023/12/04 23:26:06;;;;;;;564.47;30.33;;;;;;;;;;8273276;28;21807;-59
2023/12/04 23:30:07;;;;;;;490.45;31.60;;;;;;;;;;8281501;28;20290;-59
2023/12/04 23:34:08;;;;;;;138.05;20.98;;;;;;;;;;8283246;28;20940;-59
2023/12/04 23:38:09;;;;;;;512.40;45.60;;;;;;;;;;8283463;28;20033;-59
2023/12/04 23:42:09;;;;;;;199.90;28.08;;;;;;;;;;8281540;28;20778;-59